createdAt,value
2016-12-12T00:00:02.642Z,959.12
2016-12-12T00:00:28.622Z,959.11
2016-12-12T00:00:54.606Z,959.11
2016-12-12T00:01:20.596Z,959.09
2016-12-12T00:01:46.581Z,959.13
2016-12-12T00:02:12.568Z,959.1
2016-12-12T00:02:38.554Z,959.13
2016-12-12T00:03:04.536Z,959.16
2016-12-12T00:03:30.528Z,959.14
2016-12-12T00:03:56.521Z,959.13
2016-12-12T00:04:22.519Z,959.16
2016-12-12T00:04:48.515Z,959.18
2016-12-12T00:05:14.498Z,959.13
2016-12-12T00:05:40.483Z,959.14
2016-12-12T00:06:06.469Z,959.11
2016-12-12T00:06:32.452Z,959.16
2016-12-12T00:06:58.438Z,959.14
2016-12-12T00:07:24.421Z,959.12
2016-12-12T00:07:50.403Z,959.09
2016-12-12T00:08:16.389Z,959.1
2016-12-12T00:08:42.381Z,959.07
2016-12-12T00:09:08.369Z,959.11
2016-12-12T00:09:34.358Z,959.2
2016-12-12T00:10:00.344Z,959.17
2016-12-12T00:10:26.342Z,959.17
2016-12-12T00:10:52.331Z,959.16
2016-12-12T00:11:18.329Z,959.26
2016-12-12T00:11:44.314Z,959.24
2016-12-12T00:12:10.330Z,959.13
2016-12-12T00:12:36.314Z,959.18
2016-12-12T00:13:02.298Z,959.17
2016-12-12T00:13:28.283Z,959.14
2016-12-12T00:13:54.268Z,959.17
2016-12-12T00:14:20.257Z,959.15
2016-12-12T00:14:46.278Z,959.14
2016-12-12T00:15:12.261Z,959.12
2016-12-12T00:15:38.244Z,959.09
2016-12-12T00:16:04.231Z,959.14
2016-12-12T00:16:30.212Z,959.16
2016-12-12T00:16:56.202Z,959.14
2016-12-12T00:17:22.185Z,959.18
2016-12-12T00:17:48.169Z,959.2
2016-12-12T00:18:14.152Z,959.25
2016-12-12T00:18:40.162Z,959.22
2016-12-12T00:19:06.152Z,959.27
2016-12-12T00:19:32.155Z,959.24
2016-12-12T00:19:58.154Z,959.24
2016-12-12T00:20:24.146Z,959.28
2016-12-12T00:20:50.171Z,959.29
2016-12-12T00:21:16.163Z,959.27
2016-12-12T00:21:42.164Z,959.24
2016-12-12T00:22:08.148Z,959.28
2016-12-12T00:22:34.147Z,959.29
2016-12-12T00:23:00.148Z,959.31
2016-12-12T00:23:26.133Z,959.27
2016-12-12T00:23:52.115Z,959.33
2016-12-12T00:24:18.120Z,959.27
2016-12-12T00:24:44.105Z,959.26
2016-12-12T00:25:10.093Z,959.23
2016-12-12T00:25:36.081Z,959.27
2016-12-12T00:26:02.065Z,959.25
2016-12-12T00:26:28.048Z,959.22
2016-12-12T00:26:54.034Z,959.27
2016-12-12T00:27:20.016Z,959.26
2016-12-12T00:27:46.003Z,959.2
2016-12-12T00:28:11.988Z,959.27
2016-12-12T00:28:37.974Z,959.15
2016-12-12T00:29:03.970Z,959.21
2016-12-12T00:29:29.961Z,959.22
2016-12-12T00:29:55.985Z,959.23
2016-12-12T00:30:21.974Z,959.21
2016-12-12T00:30:47.963Z,959.22
2016-12-12T00:31:13.960Z,959.25
2016-12-12T00:31:39.947Z,959.26
2016-12-12T00:32:05.961Z,959.26
2016-12-12T00:32:31.944Z,959.25
2016-12-12T00:32:57.927Z,959.27
2016-12-12T00:33:23.912Z,959.29
2016-12-12T00:33:49.899Z,959.26
2016-12-12T00:34:15.906Z,959.28
2016-12-12T00:34:41.891Z,959.21
2016-12-12T00:35:07.871Z,959.27
2016-12-12T00:35:33.855Z,959.23
2016-12-12T00:35:59.841Z,959.26
2016-12-12T00:36:25.823Z,959.31
2016-12-12T00:36:51.807Z,959.27
2016-12-12T00:37:17.790Z,959.27
2016-12-12T00:37:43.783Z,959.29
2016-12-12T00:38:09.773Z,959.28
2016-12-12T00:38:35.757Z,959.2
2016-12-12T00:39:01.747Z,959.2
2016-12-12T00:39:27.741Z,959.22
2016-12-12T00:39:53.724Z,959.23
2016-12-12T00:40:19.722Z,959.25
2016-12-12T00:40:45.716Z,959.23
2016-12-12T00:41:11.702Z,959.26
2016-12-12T00:41:37.683Z,959.21
2016-12-12T00:42:03.666Z,959.2
2016-12-12T00:42:29.663Z,959.24
2016-12-12T00:42:55.646Z,959.22
2016-12-12T00:43:21.638Z,959.19
2016-12-12T00:43:47.634Z,959.22
2016-12-12T00:44:13.621Z,959.2
2016-12-12T00:44:39.608Z,959.21
2016-12-12T00:45:05.597Z,959.22
2016-12-12T00:45:31.587Z,959.23
2016-12-12T00:45:57.570Z,959.17
2016-12-12T00:46:23.576Z,959.23
2016-12-12T00:46:49.556Z,959.19
2016-12-12T00:47:15.541Z,959.21
2016-12-12T00:47:41.530Z,959.21
2016-12-12T00:48:07.521Z,959.22
2016-12-12T00:48:33.497Z,959.2
2016-12-12T00:48:59.481Z,959.2
2016-12-12T00:49:25.475Z,959.19
2016-12-12T00:49:51.466Z,959.21
2016-12-12T00:50:17.449Z,959.19
2016-12-12T00:50:43.467Z,959.18
2016-12-12T00:51:09.470Z,959.15
2016-12-12T00:51:35.456Z,959.14
2016-12-12T00:52:01.439Z,959.2
2016-12-12T00:52:27.424Z,959.18
2016-12-12T00:52:53.409Z,959.14
2016-12-12T00:53:19.409Z,959.17
2016-12-12T00:53:45.398Z,959.15
2016-12-12T00:54:11.386Z,959.1
2016-12-12T00:54:37.373Z,959.14
2016-12-12T00:55:03.356Z,959.12
2016-12-12T00:55:29.364Z,959.16
2016-12-12T00:55:55.341Z,959.16
2016-12-12T00:56:21.348Z,959.16
2016-12-12T00:56:47.324Z,959.17
2016-12-12T00:57:13.312Z,959.09
2016-12-12T00:57:39.310Z,959.16
2016-12-12T00:58:05.307Z,959.15
2016-12-12T00:58:31.308Z,959.14
2016-12-12T00:58:57.289Z,959.12
2016-12-12T00:59:23.272Z,959.11
2016-12-12T00:59:49.258Z,959.08
2016-12-12T01:00:15.253Z,959.11
2016-12-12T01:00:41.233Z,959.1
2016-12-12T01:01:07.225Z,959.12
2016-12-12T01:01:33.213Z,959.1
2016-12-12T01:01:59.196Z,959.07
2016-12-12T01:02:25.182Z,959.11
2016-12-12T01:02:51.170Z,959.16
2016-12-12T01:03:17.152Z,959.14
2016-12-12T01:03:43.135Z,959.13
2016-12-12T01:04:09.121Z,959.14
2016-12-12T01:04:35.110Z,959.16
2016-12-12T01:05:01.090Z,959.17
2016-12-12T01:05:27.104Z,959.18
2016-12-12T01:05:53.087Z,959.19
2016-12-12T01:06:19.092Z,959.2
2016-12-12T01:06:45.075Z,959.24
2016-12-12T01:07:11.057Z,959.2
2016-12-12T01:07:37.045Z,959.21
2016-12-12T01:08:03.041Z,959.2
2016-12-12T01:08:29.036Z,959.19
2016-12-12T01:08:55.024Z,959.22
2016-12-12T01:09:21.011Z,959.27
2016-12-12T01:09:46.995Z,959.23
2016-12-12T01:10:12.969Z,959.24
2016-12-12T01:10:38.954Z,959.22
2016-12-12T01:11:04.942Z,959.24
2016-12-12T01:11:30.935Z,959.26
2016-12-12T01:11:56.922Z,959.27
2016-12-12T01:12:22.906Z,959.26
2016-12-12T01:12:48.927Z,959.22
2016-12-12T01:13:14.911Z,959.2
2016-12-12T01:13:40.907Z,959.23
2016-12-12T01:14:06.900Z,959.25
2016-12-12T01:14:32.879Z,959.29
2016-12-12T01:14:58.875Z,959.26
2016-12-12T01:15:24.861Z,959.29
2016-12-12T01:15:50.867Z,959.24
2016-12-12T01:16:16.854Z,959.24
2016-12-12T01:16:42.842Z,959.27
2016-12-12T01:17:08.839Z,959.24
2016-12-12T01:17:34.829Z,959.24
2016-12-12T01:18:00.812Z,959.21
2016-12-12T01:18:26.853Z,959.21
2016-12-12T01:18:52.844Z,959.22
2016-12-12T01:19:18.843Z,959.24
2016-12-12T01:19:44.824Z,959.21
2016-12-12T01:20:10.808Z,959.22
2016-12-12T01:20:36.790Z,959.25
2016-12-12T01:21:02.774Z,959.23
2016-12-12T01:21:28.770Z,959.24
2016-12-12T01:21:54.749Z,959.22
2016-12-12T01:22:20.737Z,959.27
2016-12-12T01:22:46.728Z,959.25
2016-12-12T01:23:12.711Z,959.22
2016-12-12T01:23:38.696Z,959.25
2016-12-12T01:24:04.682Z,959.21
2016-12-12T01:24:30.665Z,959.24
2016-12-12T01:24:56.655Z,959.22
2016-12-12T01:25:22.651Z,959.23
2016-12-12T01:25:48.652Z,959.24
2016-12-12T01:26:14.649Z,959.24
2016-12-12T01:26:40.626Z,959.22
2016-12-12T01:27:06.615Z,959.2
2016-12-12T01:27:32.598Z,959.18
2016-12-12T01:27:58.580Z,959.21
2016-12-12T01:28:24.565Z,959.18
2016-12-12T01:28:50.549Z,959.19
2016-12-12T01:29:16.531Z,959.21
2016-12-12T01:29:42.535Z,959.23
2016-12-12T01:30:08.521Z,959.24
2016-12-12T01:30:34.526Z,959.25
2016-12-12T01:31:00.517Z,959.24
2016-12-12T01:31:26.509Z,959.26
2016-12-12T01:31:52.498Z,959.27
2016-12-12T01:32:18.516Z,959.23
2016-12-12T01:32:44.569Z,959.25
2016-12-12T01:33:10.538Z,959.27
2016-12-12T01:33:36.527Z,959.26
2016-12-12T01:34:02.509Z,959.26
2016-12-12T01:34:28.494Z,959.27
2016-12-12T01:34:54.479Z,959.31
2016-12-12T01:35:20.472Z,959.26
2016-12-12T01:35:46.471Z,959.3
2016-12-12T01:36:12.455Z,959.29
2016-12-12T01:36:38.443Z,959.31
2016-12-12T01:37:04.427Z,959.29
2016-12-12T01:37:30.415Z,959.3
2016-12-12T01:37:56.398Z,959.36
2016-12-12T01:38:22.385Z,959.31
2016-12-12T01:38:48.368Z,959.32
2016-12-12T01:39:14.353Z,959.31
2016-12-12T01:39:40.375Z,959.28
2016-12-12T01:40:06.358Z,959.34
2016-12-12T01:40:32.343Z,959.32
2016-12-12T01:40:58.324Z,959.27
2016-12-12T01:41:24.324Z,959.32
2016-12-12T01:41:50.319Z,959.27
2016-12-12T01:42:16.303Z,959.27
2016-12-12T01:42:42.320Z,959.26
2016-12-12T01:43:08.285Z,959.27
2016-12-12T01:43:34.298Z,959.26
2016-12-12T01:44:00.296Z,959.23
2016-12-12T01:44:26.283Z,959.25
2016-12-12T01:44:52.265Z,959.25
2016-12-12T01:45:18.248Z,959.21
2016-12-12T01:45:44.235Z,959.17
2016-12-12T01:46:10.219Z,959.2
2016-12-12T01:46:36.207Z,959.24
2016-12-12T01:47:02.191Z,959.19
2016-12-12T01:47:28.176Z,959.19
2016-12-12T01:47:54.161Z,959.12
2016-12-12T01:48:20.146Z,959.16
2016-12-12T01:48:46.129Z,959.21
2016-12-12T01:49:12.112Z,959.14
2016-12-12T01:49:38.094Z,959.15
2016-12-12T01:50:04.091Z,959.13
2016-12-12T01:50:30.076Z,959.14
2016-12-12T01:50:56.061Z,959.14
2016-12-12T01:51:22.044Z,959.17
2016-12-12T01:51:48.027Z,959.11
2016-12-12T01:52:14.012Z,959.14
2016-12-12T01:52:39.999Z,959.1
2016-12-12T01:53:05.984Z,959.14
2016-12-12T01:53:31.964Z,959.15
2016-12-12T01:53:57.950Z,959.12
2016-12-12T01:54:23.940Z,959.15
2016-12-12T01:54:49.930Z,959.13
2016-12-12T01:55:15.916Z,959.09
2016-12-12T01:55:41.913Z,959.12
2016-12-12T01:56:07.910Z,959.1
2016-12-12T01:56:33.898Z,959.12
2016-12-12T01:56:59.880Z,959.09
2016-12-12T01:57:25.878Z,959.1
2016-12-12T01:57:51.872Z,959.1
2016-12-12T01:58:17.858Z,959.09
2016-12-12T01:58:43.844Z,959.12
2016-12-12T01:59:09.827Z,959.17
2016-12-12T01:59:35.813Z,959.1
2016-12-12T02:00:01.808Z,959.12
2016-12-12T02:00:27.793Z,959.14
2016-12-12T02:00:53.778Z,959.14
2016-12-12T02:01:19.761Z,959.13
2016-12-12T02:01:45.748Z,959.11
2016-12-12T02:02:11.759Z,959.14
2016-12-12T02:02:37.724Z,959.1
2016-12-12T02:03:03.713Z,959.07
2016-12-12T02:03:29.696Z,959.06
2016-12-12T02:03:55.678Z,959.08
2016-12-12T02:04:21.665Z,959.04
2016-12-12T02:04:47.646Z,959.04
2016-12-12T02:05:13.633Z,959.04
2016-12-12T02:05:39.630Z,959.07
2016-12-12T02:06:05.645Z,959.07
2016-12-12T02:06:31.637Z,959.02
2016-12-12T02:06:57.630Z,959.01
2016-12-12T02:07:23.618Z,959.05
2016-12-12T02:07:49.602Z,959.06
2016-12-12T02:08:15.611Z,959.04
2016-12-12T02:08:41.598Z,959.03
2016-12-12T02:09:07.583Z,959
2016-12-12T02:09:33.577Z,959
2016-12-12T02:09:59.574Z,959
2016-12-12T02:10:25.590Z,959.01
2016-12-12T02:10:51.608Z,958.99
2016-12-12T02:11:17.580Z,959.01
2016-12-12T02:11:43.591Z,959.03
2016-12-12T02:12:09.613Z,959.03
2016-12-12T02:12:35.599Z,958.99
2016-12-12T02:13:01.579Z,959.03
2016-12-12T02:13:27.562Z,959.05
2016-12-12T02:13:53.577Z,959.05
2016-12-12T02:14:19.535Z,959.07
2016-12-12T02:14:45.537Z,959.06
2016-12-12T02:15:11.518Z,959.07
2016-12-12T02:15:37.501Z,959.08
2016-12-12T02:16:03.484Z,959.1
2016-12-12T02:16:29.467Z,959.1
2016-12-12T02:16:55.454Z,959.08
2016-12-12T02:17:21.436Z,959.12
2016-12-12T02:17:47.449Z,959.1
2016-12-12T02:18:13.406Z,959.16
2016-12-12T02:18:39.392Z,959.09
2016-12-12T02:19:05.373Z,959.13
2016-12-12T02:19:31.386Z,959.13
2016-12-12T02:19:57.373Z,959.15
2016-12-12T02:20:23.356Z,959.16
2016-12-12T02:20:49.367Z,959.15
2016-12-12T02:21:15.358Z,959.15
2016-12-12T02:21:41.347Z,959.19
2016-12-12T02:22:07.345Z,959.17
2016-12-12T02:22:33.327Z,959.16
2016-12-12T02:22:59.315Z,959.17
2016-12-12T02:23:25.299Z,959.17
2016-12-12T02:23:51.282Z,959.2
2016-12-12T02:24:17.268Z,959.15
2016-12-12T02:24:43.250Z,959.18
2016-12-12T02:25:09.238Z,959.18
2016-12-12T02:25:35.221Z,959.23
2016-12-12T02:26:01.209Z,959.18
2016-12-12T02:26:27.194Z,959.17
2016-12-12T02:26:53.190Z,959.19
2016-12-12T02:27:19.174Z,959.25
2016-12-12T02:27:45.159Z,959.24
2016-12-12T02:28:11.156Z,959.24
2016-12-12T02:28:37.143Z,959.19
2016-12-12T02:29:03.128Z,959.24
2016-12-12T02:29:29.114Z,959.25
2016-12-12T02:29:55.131Z,959.25
2016-12-12T02:30:21.116Z,959.25
2016-12-12T02:30:47.100Z,959.28
2016-12-12T02:31:13.094Z,959.27
2016-12-12T02:31:39.076Z,959.28
2016-12-12T02:32:05.059Z,959.26
2016-12-12T02:32:31.044Z,959.24
2016-12-12T02:32:57.066Z,959.28
2016-12-12T02:33:23.040Z,959.24
2016-12-12T02:33:49.061Z,959.24
2016-12-12T02:34:15.012Z,959.28
2016-12-12T02:34:40.997Z,959.24
2016-12-12T02:35:06.984Z,959.25
2016-12-12T02:35:32.970Z,959.23
2016-12-12T02:35:58.968Z,959.24
2016-12-12T02:36:24.953Z,959.27
2016-12-12T02:36:50.943Z,959.26
2016-12-12T02:37:16.923Z,959.27
2016-12-12T02:37:42.904Z,959.28
2016-12-12T02:38:08.889Z,959.26
2016-12-12T02:38:34.874Z,959.26
2016-12-12T02:39:00.859Z,959.29
2016-12-12T02:39:26.864Z,959.26
2016-12-12T02:39:52.851Z,959.28
2016-12-12T02:40:18.833Z,959.32
2016-12-12T02:40:44.816Z,959.28
2016-12-12T02:41:10.805Z,959.32
2016-12-12T02:41:36.794Z,959.27
2016-12-12T02:42:02.782Z,959.33
2016-12-12T02:42:28.776Z,959.31
2016-12-12T02:42:54.776Z,959.36
2016-12-12T02:43:20.772Z,959.35
2016-12-12T02:43:46.843Z,959.31
2016-12-12T02:44:12.796Z,959.31
2016-12-12T02:44:38.807Z,959.32
2016-12-12T02:45:04.815Z,959.3
2016-12-12T02:45:30.801Z,959.29
2016-12-12T02:45:56.822Z,959.29
2016-12-12T02:46:22.802Z,959.28
2016-12-12T02:46:48.795Z,959.28
2016-12-12T02:47:14.787Z,959.28
2016-12-12T02:47:40.788Z,959.28
2016-12-12T02:48:06.772Z,959.25
2016-12-12T02:48:32.757Z,959.26
2016-12-12T02:48:58.740Z,959.24
2016-12-12T02:49:24.726Z,959.29
2016-12-12T02:49:50.713Z,959.3
2016-12-12T02:50:16.697Z,959.3
2016-12-12T02:50:42.683Z,959.3
2016-12-12T02:51:08.667Z,959.28
2016-12-12T02:51:34.687Z,959.28
2016-12-12T02:52:00.672Z,959.27
2016-12-12T02:52:26.655Z,959.23
2016-12-12T02:52:52.637Z,959.22
2016-12-12T02:53:18.628Z,959.23
2016-12-12T02:53:44.611Z,959.29
2016-12-12T02:54:10.632Z,959.26
2016-12-12T02:54:36.624Z,959.24
2016-12-12T02:55:02.611Z,959.25
2016-12-12T02:55:28.610Z,959.26
2016-12-12T02:55:54.600Z,959.27
2016-12-12T02:56:20.599Z,959.28
2016-12-12T02:56:46.586Z,959.25
2016-12-12T02:57:12.568Z,959.27
2016-12-12T02:57:38.553Z,959.26
2016-12-12T02:58:04.542Z,959.25
2016-12-12T02:58:30.522Z,959.25
2016-12-12T02:58:56.508Z,959.21
2016-12-12T02:59:22.491Z,959.26
2016-12-12T02:59:48.474Z,959.23
2016-12-12T03:00:14.455Z,959.23
2016-12-12T03:00:40.458Z,959.22
2016-12-12T03:01:06.441Z,959.24
2016-12-12T03:01:32.425Z,959.22
2016-12-12T03:01:58.443Z,959.21
2016-12-12T03:02:24.455Z,959.22
2016-12-12T03:02:50.442Z,959.2
2016-12-12T03:03:16.427Z,959.22
2016-12-12T03:03:42.449Z,959.21
2016-12-12T03:04:08.433Z,959.25
2016-12-12T03:04:34.416Z,959.24
2016-12-12T03:05:00.415Z,959.2
2016-12-12T03:05:26.398Z,959.23
2016-12-12T03:05:52.383Z,959.27
2016-12-12T03:06:18.368Z,959.24
2016-12-12T03:06:44.350Z,959.2
2016-12-12T03:07:10.333Z,959.2
2016-12-12T03:07:36.314Z,959.26
2016-12-12T03:08:02.301Z,959.23
2016-12-12T03:08:28.284Z,959.23
2016-12-12T03:08:54.268Z,959.21
2016-12-12T03:09:20.251Z,959.23
2016-12-12T03:09:46.237Z,959.25
2016-12-12T03:10:12.222Z,959.23
2016-12-12T03:10:38.206Z,959.27
2016-12-12T03:11:04.190Z,959.3
2016-12-12T03:11:30.176Z,959.33
2016-12-12T03:11:56.158Z,959.28
2016-12-12T03:12:22.143Z,959.29
2016-12-12T03:12:48.125Z,959.28
2016-12-12T03:13:14.124Z,959.33
2016-12-12T03:13:40.108Z,959.31
2016-12-12T03:14:06.092Z,959.31
2016-12-12T03:14:32.087Z,959.3
2016-12-12T03:14:58.075Z,959.28
2016-12-12T03:15:24.059Z,959.23
2016-12-12T03:15:50.044Z,959.28
2016-12-12T03:16:16.033Z,959.23
2016-12-12T03:16:42.017Z,959.22
2016-12-12T03:17:08.010Z,959.25
2016-12-12T03:17:34.015Z,959.23
2016-12-12T03:18:00.001Z,959.19
2016-12-12T03:18:26.010Z,959.17
2016-12-12T03:18:51.993Z,959.24
2016-12-12T03:19:17.976Z,959.22
2016-12-12T03:19:43.960Z,959.21
2016-12-12T03:20:09.952Z,959.23
2016-12-12T03:20:35.938Z,959.23
2016-12-12T03:21:01.920Z,959.21
2016-12-12T03:21:27.909Z,959.24
2016-12-12T03:21:53.890Z,959.27
2016-12-12T03:22:19.873Z,959.22
2016-12-12T03:22:45.881Z,959.26
2016-12-12T03:23:11.866Z,959.24
2016-12-12T03:23:37.856Z,959.24
2016-12-12T03:24:03.845Z,959.24
2016-12-12T03:24:29.830Z,959.26
2016-12-12T03:24:55.815Z,959.25
2016-12-12T03:25:21.899Z,959.22
2016-12-12T03:25:47.881Z,959.28
2016-12-12T03:26:13.864Z,959.28
2016-12-12T03:26:39.863Z,959.29
2016-12-12T03:27:05.852Z,959.26
2016-12-12T03:27:31.852Z,959.21
2016-12-12T03:27:57.837Z,959.29
2016-12-12T03:28:23.819Z,959.28
2016-12-12T03:28:49.804Z,959.31
2016-12-12T03:29:15.799Z,959.27
2016-12-12T03:29:41.783Z,959.24
2016-12-12T03:30:07.768Z,959.29
2016-12-12T03:30:33.754Z,959.26
2016-12-12T03:30:59.738Z,959.26
2016-12-12T03:31:25.722Z,959.27
2016-12-12T03:31:51.716Z,959.24
2016-12-12T03:32:17.711Z,959.26
2016-12-12T03:32:43.697Z,959.25
2016-12-12T03:33:09.685Z,959.23
2016-12-12T03:33:35.678Z,959.23
2016-12-12T03:34:01.669Z,959.23
2016-12-12T03:34:27.677Z,959.2
2016-12-12T03:34:53.677Z,959.21
2016-12-12T03:35:19.663Z,959.2
2016-12-12T03:35:45.646Z,959.21
2016-12-12T03:36:11.631Z,959.21
2016-12-12T03:36:37.616Z,959.21
2016-12-12T03:37:03.598Z,959.22
2016-12-12T03:37:29.585Z,959.22
2016-12-12T03:37:55.565Z,959.22
2016-12-12T03:38:21.550Z,959.22
2016-12-12T03:38:47.558Z,959.25
2016-12-12T03:39:13.534Z,959.24
2016-12-12T03:39:39.522Z,959.23
2016-12-12T03:40:05.505Z,959.27
2016-12-12T03:40:31.610Z,959.28
2016-12-12T03:40:57.595Z,959.28
2016-12-12T03:41:23.581Z,959.32
2016-12-12T03:41:49.564Z,959.28
2016-12-12T03:42:15.544Z,959.24
2016-12-12T03:42:41.527Z,959.27
2016-12-12T03:43:07.514Z,959.26
2016-12-12T03:43:33.500Z,959.27
2016-12-12T03:43:59.491Z,959.28
2016-12-12T03:44:25.483Z,959.26
2016-12-12T03:44:51.477Z,959.27
2016-12-12T03:45:17.463Z,959.27
2016-12-12T03:45:43.447Z,959.25
2016-12-12T03:46:09.432Z,959.27
2016-12-12T03:46:35.416Z,959.24
2016-12-12T03:47:01.413Z,959.26
2016-12-12T03:47:27.397Z,959.24
2016-12-12T03:47:53.379Z,959.27
2016-12-12T03:48:19.364Z,959.26
2016-12-12T03:48:45.350Z,959.23
2016-12-12T03:49:11.335Z,959.26
2016-12-12T03:49:37.324Z,959.24
2016-12-12T03:50:03.309Z,959.27
2016-12-12T03:50:29.300Z,959.27
2016-12-12T03:50:55.289Z,959.27
2016-12-12T03:51:21.273Z,959.23
2016-12-12T03:51:47.269Z,959.24
2016-12-12T03:52:13.291Z,959.27
2016-12-12T03:52:39.283Z,959.27
2016-12-12T03:53:05.259Z,959.26
2016-12-12T03:53:31.250Z,959.27
2016-12-12T03:53:57.240Z,959.28
2016-12-12T03:54:23.234Z,959.24
2016-12-12T03:54:49.228Z,959.26
2016-12-12T03:55:15.208Z,959.27
2016-12-12T03:55:41.210Z,959.28
2016-12-12T03:56:07.190Z,959.3
2016-12-12T03:56:33.176Z,959.31
2016-12-12T03:56:59.160Z,959.28
2016-12-12T03:57:25.143Z,959.28
2016-12-12T03:57:51.128Z,959.26
2016-12-12T03:58:17.126Z,959.26
2016-12-12T03:58:43.120Z,959.27
2016-12-12T03:59:09.113Z,959.28
2016-12-12T03:59:35.105Z,959.32
2016-12-12T04:00:01.087Z,959.27
2016-12-12T04:00:27.073Z,959.31
2016-12-12T04:00:53.056Z,959.35
2016-12-12T04:01:19.041Z,959.36
2016-12-12T04:01:45.027Z,959.36
2016-12-12T04:02:11.011Z,959.31
2016-12-12T04:02:36.997Z,959.4
2016-12-12T04:03:02.988Z,959.36
2016-12-12T04:03:28.968Z,959.38
2016-12-12T04:03:54.955Z,959.38
2016-12-12T04:04:20.939Z,959.33
2016-12-12T04:04:46.925Z,959.33
2016-12-12T04:05:12.916Z,959.32
2016-12-12T04:05:38.912Z,959.28
2016-12-12T04:06:04.916Z,959.35
2016-12-12T04:06:30.914Z,959.35
2016-12-12T04:06:56.897Z,959.34
2016-12-12T04:07:22.916Z,959.38
2016-12-12T04:07:48.914Z,959.33
2016-12-12T04:08:14.902Z,959.35
2016-12-12T04:08:40.888Z,959.34
2016-12-12T04:09:06.871Z,959.35
2016-12-12T04:09:32.854Z,959.31
2016-12-12T04:09:58.867Z,959.35
2016-12-12T04:10:24.851Z,959.36
2016-12-12T04:10:50.836Z,959.36
2016-12-12T04:11:16.817Z,959.34
2016-12-12T04:11:42.804Z,959.36
2016-12-12T04:12:08.791Z,959.36
2016-12-12T04:12:34.784Z,959.38
2016-12-12T04:13:00.769Z,959.37
2016-12-12T04:13:26.753Z,959.38
2016-12-12T04:13:52.743Z,959.36
2016-12-12T04:14:18.796Z,959.4
2016-12-12T04:14:44.749Z,959.38
2016-12-12T04:15:10.732Z,959.37
2016-12-12T04:15:36.823Z,959.37
2016-12-12T04:16:02.805Z,959.36
2016-12-12T04:16:28.789Z,959.39
2016-12-12T04:16:54.772Z,959.41
2016-12-12T04:17:20.759Z,959.4
2016-12-12T04:17:46.748Z,959.39
2016-12-12T04:18:12.733Z,959.38
2016-12-12T04:18:38.727Z,959.36
2016-12-12T04:19:04.707Z,959.42
2016-12-12T04:19:30.691Z,959.39
2016-12-12T04:19:56.683Z,959.4
2016-12-12T04:20:22.661Z,959.42
2016-12-12T04:20:48.751Z,959.41
2016-12-12T04:21:14.747Z,959.41
2016-12-12T04:21:40.739Z,959.39
2016-12-12T04:22:06.736Z,959.43
2016-12-12T04:22:32.726Z,959.45
2016-12-12T04:22:58.713Z,959.4
2016-12-12T04:23:24.696Z,959.45
2016-12-12T04:23:50.681Z,959.49
2016-12-12T04:24:16.665Z,959.53
2016-12-12T04:24:42.664Z,959.53
2016-12-12T04:25:08.638Z,959.55
2016-12-12T04:25:34.625Z,959.55
2016-12-12T04:26:00.615Z,959.57
2016-12-12T04:26:26.598Z,959.57
2016-12-12T04:26:52.593Z,959.53
2016-12-12T04:27:18.580Z,959.57
2016-12-12T04:27:44.568Z,959.56
2016-12-12T04:28:10.562Z,959.58
2016-12-12T04:28:36.548Z,959.55
2016-12-12T04:29:02.532Z,959.57
2016-12-12T04:29:28.540Z,959.56
2016-12-12T04:29:54.521Z,959.58
2016-12-12T04:30:20.530Z,959.59
2016-12-12T04:30:46.501Z,959.62
2016-12-12T04:31:12.509Z,959.62
2016-12-12T04:31:38.511Z,959.65
2016-12-12T04:32:04.493Z,959.66
2016-12-12T04:32:30.482Z,959.61
2016-12-12T04:32:56.469Z,959.65
2016-12-12T04:33:22.453Z,959.61
2016-12-12T04:33:48.436Z,959.61
2016-12-12T04:34:14.420Z,959.64
2016-12-12T04:34:40.410Z,959.59
2016-12-12T04:35:06.387Z,959.62
2016-12-12T04:35:32.372Z,959.63
2016-12-12T04:35:58.362Z,959.62
2016-12-12T04:36:24.361Z,959.63
2016-12-12T04:36:50.347Z,959.64
2016-12-12T04:37:16.340Z,959.61
2016-12-12T04:37:42.335Z,959.58
2016-12-12T04:38:08.320Z,959.59
2016-12-12T04:38:34.305Z,959.59
2016-12-12T04:39:00.289Z,959.61
2016-12-12T04:39:26.274Z,959.61
2016-12-12T04:39:52.257Z,959.58
2016-12-12T04:40:18.246Z,959.58
2016-12-12T04:40:44.233Z,959.56
2016-12-12T04:41:10.227Z,959.62
2016-12-12T04:41:36.211Z,959.59
2016-12-12T04:42:02.196Z,959.59
2016-12-12T04:42:28.183Z,959.57
2016-12-12T04:42:54.170Z,959.56
2016-12-12T04:43:20.154Z,959.57
2016-12-12T04:43:46.168Z,959.58
2016-12-12T04:44:12.118Z,959.59
2016-12-12T04:44:38.128Z,959.62
2016-12-12T04:45:04.110Z,959.57
2016-12-12T04:45:30.097Z,959.62
2016-12-12T04:45:56.179Z,959.61
2016-12-12T04:46:22.157Z,959.59
2016-12-12T04:46:48.145Z,959.66
2016-12-12T04:47:14.155Z,959.62
2016-12-12T04:47:40.114Z,959.63
2016-12-12T04:48:06.100Z,959.66
2016-12-12T04:48:32.082Z,959.67
2016-12-12T04:48:58.072Z,959.68
2016-12-12T04:49:24.053Z,959.65
2016-12-12T04:49:50.040Z,959.65
2016-12-12T04:50:16.027Z,959.65
2016-12-12T04:50:42.007Z,959.65
2016-12-12T04:51:07.996Z,959.63
2016-12-12T04:51:33.982Z,959.62
2016-12-12T04:51:59.966Z,959.65
2016-12-12T04:52:25.955Z,959.66
2016-12-12T04:52:51.937Z,959.64
2016-12-12T04:53:17.920Z,959.64
2016-12-12T04:53:43.903Z,959.67
2016-12-12T04:54:09.916Z,959.64
2016-12-12T04:54:35.898Z,959.64
2016-12-12T04:55:01.886Z,959.7
2016-12-12T04:55:27.872Z,959.66
2016-12-12T04:55:53.855Z,959.67
2016-12-12T04:56:19.840Z,959.74
2016-12-12T04:56:45.848Z,959.72
2016-12-12T04:57:11.830Z,959.68
2016-12-12T04:57:37.814Z,959.69
2016-12-12T04:58:03.806Z,959.66
2016-12-12T04:58:29.795Z,959.68
2016-12-12T04:58:55.800Z,959.64
2016-12-12T04:59:21.795Z,959.66
2016-12-12T04:59:47.795Z,959.63
2016-12-12T05:00:13.781Z,959.64
2016-12-12T05:00:39.766Z,959.65
2016-12-12T05:01:05.853Z,959.61
2016-12-12T05:01:31.834Z,959.61
2016-12-12T05:01:57.819Z,959.63
2016-12-12T05:02:23.810Z,959.6
2016-12-12T05:02:49.801Z,959.66
2016-12-12T05:03:15.816Z,959.66
2016-12-12T05:03:41.810Z,959.68
2016-12-12T05:04:07.818Z,959.67
2016-12-12T05:04:33.818Z,959.7
2016-12-12T05:04:59.834Z,959.67
2016-12-12T05:05:25.803Z,959.7
2016-12-12T05:05:51.790Z,959.69
2016-12-12T05:06:17.795Z,959.69
2016-12-12T05:06:43.777Z,959.7
2016-12-12T05:07:09.759Z,959.72
2016-12-12T05:07:35.741Z,959.71
2016-12-12T05:08:01.723Z,959.68
2016-12-12T05:08:27.711Z,959.72
2016-12-12T05:08:53.693Z,959.73
2016-12-12T05:09:19.677Z,959.66
2016-12-12T05:09:45.661Z,959.74
2016-12-12T05:10:11.642Z,959.67
2016-12-12T05:10:37.626Z,959.72
2016-12-12T05:11:03.613Z,959.67
2016-12-12T05:11:29.595Z,959.73
2016-12-12T05:11:55.579Z,959.7
2016-12-12T05:12:21.568Z,959.72
2016-12-12T05:12:47.552Z,959.73
2016-12-12T05:13:13.548Z,959.71
2016-12-12T05:13:39.534Z,959.77
2016-12-12T05:14:05.526Z,959.73
2016-12-12T05:14:31.509Z,959.77
2016-12-12T05:14:57.491Z,959.75
2016-12-12T05:15:23.475Z,959.71
2016-12-12T05:15:49.457Z,959.73
2016-12-12T05:16:15.444Z,959.79
2016-12-12T05:16:41.437Z,959.75
2016-12-12T05:17:07.422Z,959.78
2016-12-12T05:17:33.407Z,959.83
2016-12-12T05:17:59.393Z,959.77
2016-12-12T05:18:25.375Z,959.81
2016-12-12T05:18:51.359Z,959.82
2016-12-12T05:19:17.343Z,959.77
2016-12-12T05:19:43.331Z,959.78
2016-12-12T05:20:09.315Z,959.76
2016-12-12T05:20:35.299Z,959.74
2016-12-12T05:21:01.382Z,959.78
2016-12-12T05:21:27.391Z,959.8
2016-12-12T05:21:53.375Z,959.75
2016-12-12T05:22:19.363Z,959.78
2016-12-12T05:22:45.348Z,959.75
2016-12-12T05:23:11.348Z,959.78
2016-12-12T05:23:37.324Z,959.75
2016-12-12T05:24:03.310Z,959.75
2016-12-12T05:24:29.302Z,959.74
2016-12-12T05:24:55.295Z,959.76